sensor_id;sensor_type;location;lat;lon;timestamp;P1;durP1;ratioP1;P2;durP2;ratioP2
67640;SDS011;54434;50.096;20.082;2023-03-23T00:01:27;20.10;;;10.50;;
67640;SDS011;54434;50.096;20.082;2023-03-23T00:04:04;16.90;;;10.40;;
67640;SDS011;54434;50.096;20.082;2023-03-23T00:06:40;18.50;;;10.10;;
67640;SDS011;54434;50.096;20.082;2023-03-23T00:09:17;20.00;;;10.70;;
67640;SDS011;54434;50.096;20.082;2023-03-23T00:11:55;20.50;;;10.50;;
67640;SDS011;54434;50.096;20.082;2023-03-23T00:14:37;19.80;;;10.40;;
67640;SDS011;54434;50.096;20.082;2023-03-23T00:17:15;18.60;;;9.80;;
67640;SDS011;54434;50.096;20.082;2023-03-23T00:19:50;16.10;;;9.70;;
67640;SDS011;54434;50.096;20.082;2023-03-23T00:22:25;19.10;;;9.90;;
67640;SDS011;54434;50.096;20.082;2023-03-23T00:25:01;19.10;;;9.70;;
67640;SDS011;54434;50.096;20.082;2023-03-23T00:27:37;17.30;;;10.30;;
67640;SDS011;54434;50.096;20.082;2023-03-23T00:30:16;17.50;;;9.60;;
67640;SDS011;54434;50.096;20.082;2023-03-23T00:32:51;18.80;;;9.50;;
67640;SDS011;54434;50.096;20.082;2023-03-23T00:35:27;17.00;;;8.80;;
67640;SDS011;54434;50.096;20.082;2023-03-23T00:38:03;16.00;;;9.70;;
67640;SDS011;54434;50.096;20.082;2023-03-23T00:40:38;14.20;;;8.30;;
67640;SDS011;54434;50.096;20.082;2023-03-23T00:43:13;19.10;;;9.90;;
67640;SDS011;54434;50.096;20.082;2023-03-23T00:45:50;16.30;;;9.10;;
67640;SDS011;54434;50.096;20.082;2023-03-23T00:48:26;21.90;;;10.40;;
67640;SDS011;54434;50.096;20.082;2023-03-23T00:51:10;17.00;;;9.70;;
67640;SDS011;54434;50.096;20.082;2023-03-23T00:53:46;21.70;;;9.80;;
67640;SDS011;54434;50.096;20.082;2023-03-23T00:56:22;16.50;;;9.30;;
67640;SDS011;54434;50.096;20.082;2023-03-23T00:58:58;20.00;;;10.60;;
67640;SDS011;54434;50.096;20.082;2023-03-23T01:01:34;15.70;;;9.20;;
67640;SDS011;54434;50.096;20.082;2023-03-23T01:04:10;16.60;;;8.60;;
67640;SDS011;54434;50.096;20.082;2023-03-23T01:06:50;16.40;;;9.10;;
67640;SDS011;54434;50.096;20.082;2023-03-23T01:09:26;16.00;;;8.80;;
67640;SDS011;54434;50.096;20.082;2023-03-23T01:12:02;15.20;;;9.00;;
67640;SDS011;54434;50.096;20.082;2023-03-23T01:14:38;17.40;;;9.20;;
67640;SDS011;54434;50.096;20.082;2023-03-23T01:17:13;18.50;;;9.80;;
67640;SDS011;54434;50.096;20.082;2023-03-23T01:19:48;21.50;;;9.50;;
67640;SDS011;54434;50.096;20.082;2023-03-23T01:22:24;18.70;;;9.50;;
67640;SDS011;54434;50.096;20.082;2023-03-23T01:24:59;15.30;;;9.20;;
67640;SDS011;54434;50.096;20.082;2023-03-23T01:27:35;15.00;;;8.40;;
67640;SDS011;54434;50.096;20.082;2023-03-23T01:30:14;18.10;;;9.40;;
67640;SDS011;54434;50.096;20.082;2023-03-23T01:32:50;16.50;;;9.60;;
67640;SDS011;54434;50.096;20.082;2023-03-23T01:35:25;17.40;;;9.70;;
67640;SDS011;54434;50.096;20.082;2023-03-23T01:38:01;18.80;;;9.90;;
67640;SDS011;54434;50.096;20.082;2023-03-23T01:40:36;18.30;;;9.60;;
67640;SDS011;54434;50.096;20.082;2023-03-23T01:43:15;15.70;;;9.70;;
67640;SDS011;54434;50.096;20.082;2023-03-23T01:45:50;18.40;;;10.90;;
67640;SDS011;54434;50.096;20.082;2023-03-23T01:48:28;15.80;;;9.40;;
67640;SDS011;54434;50.096;20.082;2023-03-23T01:51:09;16.20;;;8.80;;
67640;SDS011;54434;50.096;20.082;2023-03-23T01:53:50;16.70;;;9.40;;
67640;SDS011;54434;50.096;20.082;2023-03-23T01:56:35;15.00;;;8.60;;
67640;SDS011;54434;50.096;20.082;2023-03-23T01:59:17;15.20;;;9.10;;
67640;SDS011;54434;50.096;20.082;2023-03-23T02:02:05;17.30;;;9.10;;
67640;SDS011;54434;50.096;20.082;2023-03-23T02:04:43;15.40;;;9.00;;
67640;SDS011;54434;50.096;20.082;2023-03-23T02:07:21;19.90;;;9.80;;
67640;SDS011;54434;50.096;20.082;2023-03-23T02:09:58;15.70;;;9.50;;
67640;SDS011;54434;50.096;20.082;2023-03-23T02:12:35;17.80;;;9.90;;
67640;SDS011;54434;50.096;20.082;2023-03-23T02:15:12;17.50;;;10.10;;
67640;SDS011;54434;50.096;20.082;2023-03-23T02:17:53;19.20;;;10.70;;
67640;SDS011;54434;50.096;20.082;2023-03-23T02:21:12;18.40;;;10.10;;
67640;SDS011;54434;50.096;20.082;2023-03-23T02:28:23;19.80;;;9.70;;
67640;SDS011;54434;50.096;20.082;2023-03-23T02:31:30;19.30;;;9.90;;
67640;SDS011;54434;50.096;20.082;2023-03-23T02:34:20;17.00;;;9.00;;
67640;SDS011;54434;50.096;20.082;2023-03-23T02:37:05;18.50;;;10.00;;
67640;SDS011;54434;50.096;20.082;2023-03-23T02:39:50;18.10;;;9.50;;
67640;SDS011;54434;50.096;20.082;2023-03-23T02:42:35;18.90;;;9.80;;
67640;SDS011;54434;50.096;20.082;2023-03-23T02:45:14;26.80;;;11.00;;
67640;SDS011;54434;50.096;20.082;2023-03-23T02:47:54;20.20;;;11.00;;
67640;SDS011;54434;50.096;20.082;2023-03-23T02:50:31;18.80;;;10.40;;
67640;SDS011;54434;50.096;20.082;2023-03-23T02:53:12;19.90;;;10.90;;
67640;SDS011;54434;50.096;20.082;2023-03-23T02:58:28;21.70;;;9.70;;
67640;SDS011;54434;50.096;20.082;2023-03-23T03:01:50;19.40;;;9.80;;
67640;SDS011;54434;50.096;20.082;2023-03-23T03:04:41;23.20;;;10.90;;
67640;SDS011;54434;50.096;20.082;2023-03-23T03:07:40;29.40;;;10.90;;
67640;SDS011;54434;50.096;20.082;2023-03-23T03:10:34;22.60;;;11.00;;
67640;SDS011;54434;50.096;20.082;2023-03-23T03:13:25;25.30;;;11.90;;
67640;SDS011;54434;50.096;20.082;2023-03-23T03:16:18;24.90;;;12.00;;
67640;SDS011;54434;50.096;20.082;2023-03-23T03:19:05;24.60;;;12.00;;
67640;SDS011;54434;50.096;20.082;2023-03-23T03:21:48;27.90;;;12.60;;
67640;SDS011;54434;50.096;20.082;2023-03-23T03:24:31;25.70;;;13.50;;
67640;SDS011;54434;50.096;20.082;2023-03-23T03:27:15;24.80;;;12.60;;
67640;SDS011;54434;50.096;20.082;2023-03-23T03:30:07;25.80;;;14.20;;
67640;SDS011;54434;50.096;20.082;2023-03-23T03:32:50;27.20;;;13.30;;
67640;SDS011;54434;50.096;20.082;2023-03-23T03:35:27;25.90;;;13.50;;
67640;SDS011;54434;50.096;20.082;2023-03-23T03:38:10;26.70;;;13.90;;
67640;SDS011;54434;50.096;20.082;2023-03-23T03:40:46;27.60;;;15.20;;
67640;SDS011;54434;50.096;20.082;2023-03-23T03:43:22;28.10;;;14.80;;
67640;SDS011;54434;50.096;20.082;2023-03-23T03:45:58;25.30;;;14.50;;
67640;SDS011;54434;50.096;20.082;2023-03-23T03:48:33;25.00;;;13.40;;
67640;SDS011;54434;50.096;20.082;2023-03-23T03:51:09;27.30;;;14.30;;
67640;SDS011;54434;50.096;20.082;2023-03-23T03:53:45;26.90;;;13.70;;
67640;SDS011;54434;50.096;20.082;2023-03-23T03:56:21;27.50;;;14.30;;
67640;SDS011;54434;50.096;20.082;2023-03-23T03:59:08;27.10;;;13.70;;
67640;SDS011;54434;50.096;20.082;2023-03-23T04:02:41;25.40;;;13.40;;
67640;SDS011;54434;50.096;20.082;2023-03-23T04:05:20;25.20;;;13.50;;
67640;SDS011;54434;50.096;20.082;2023-03-23T04:07:56;26.00;;;13.50;;
67640;SDS011;54434;50.096;20.082;2023-03-23T04:10:36;22.90;;;13.20;;
67640;SDS011;54434;50.096;20.082;2023-03-23T04:13:12;24.30;;;13.20;;
67640;SDS011;54434;50.096;20.082;2023-03-23T04:16:11;25.10;;;13.50;;
67640;SDS011;54434;50.096;20.082;2023-03-23T04:18:49;22.90;;;13.20;;
67640;SDS011;54434;50.096;20.082;2023-03-23T04:21:28;24.40;;;13.20;;
67640;SDS011;54434;50.096;20.082;2023-03-23T04:24:06;25.10;;;13.50;;
67640;SDS011;54434;50.096;20.082;2023-03-23T04:26:41;22.60;;;13.30;;
67640;SDS011;54434;50.096;20.082;2023-03-23T04:29:25;26.30;;;14.00;;
67640;SDS011;54434;50.096;20.082;2023-03-23T04:32:51;23.80;;;13.20;;
67640;SDS011;54434;50.096;20.082;2023-03-23T04:35:29;22.70;;;13.10;;
67640;SDS011;54434;50.096;20.082;2023-03-23T04:38:14;26.30;;;13.80;;
67640;SDS011;54434;50.096;20.082;2023-03-23T04:40:56;25.70;;;13.30;;
67640;SDS011;54434;50.096;20.082;2023-03-23T04:43:48;22.90;;;13.50;;
67640;SDS011;54434;50.096;20.082;2023-03-23T04:46:37;25.60;;;13.10;;
67640;SDS011;54434;50.096;20.082;2023-03-23T04:49:19;26.60;;;12.80;;
67640;SDS011;54434;50.096;20.082;2023-03-23T04:51:58;25.10;;;12.00;;
67640;SDS011;54434;50.096;20.082;2023-03-23T04:54:47;20.30;;;12.50;;
67640;SDS011;54434;50.096;20.082;2023-03-23T04:57:23;31.60;;;18.00;;
67640;SDS011;54434;50.096;20.082;2023-03-23T05:00:23;30.10;;;15.50;;
67640;SDS011;54434;50.096;20.082;2023-03-23T05:03:00;26.50;;;13.60;;
67640;SDS011;54434;50.096;20.082;2023-03-23T05:05:40;23.90;;;12.70;;
67640;SDS011;54434;50.096;20.082;2023-03-23T05:08:15;23.30;;;13.30;;
67640;SDS011;54434;50.096;20.082;2023-03-23T05:10:55;23.70;;;13.60;;
67640;SDS011;54434;50.096;20.082;2023-03-23T05:13:34;26.30;;;13.20;;
67640;SDS011;54434;50.096;20.082;2023-03-23T05:16:10;22.90;;;13.20;;
67640;SDS011;54434;50.096;20.082;2023-03-23T05:18:46;20.60;;;13.10;;
67640;SDS011;54434;50.096;20.082;2023-03-23T05:21:22;27.00;;;12.70;;
67640;SDS011;54434;50.096;20.082;2023-03-23T05:23:59;19.00;;;11.90;;
67640;SDS011;54434;50.096;20.082;2023-03-23T05:26:35;19.60;;;10.70;;
67640;SDS011;54434;50.096;20.082;2023-03-23T05:29:16;20.00;;;11.90;;
67640;SDS011;54434;50.096;20.082;2023-03-23T05:31:58;20.60;;;11.70;;
67640;SDS011;54434;50.096;20.082;2023-03-23T05:34:35;20.90;;;11.90;;
67640;SDS011;54434;50.096;20.082;2023-03-23T05:37:12;20.20;;;11.40;;
67640;SDS011;54434;50.096;20.082;2023-03-23T05:39:59;21.90;;;12.20;;
67640;SDS011;54434;50.096;20.082;2023-03-23T05:45:34;16.90;;;9.70;;
67640;SDS011;54434;50.096;20.082;2023-03-23T05:48:10;21.30;;;11.30;;
67640;SDS011;54434;50.096;20.082;2023-03-23T05:50:45;22.50;;;11.10;;
67640;SDS011;54434;50.096;20.082;2023-03-23T05:53:20;26.50;;;11.70;;
67640;SDS011;54434;50.096;20.082;2023-03-23T05:56:01;21.40;;;12.00;;
67640;SDS011;54434;50.096;20.082;2023-03-23T05:59:25;23.60;;;11.00;;
67640;SDS011;54434;50.096;20.082;2023-03-23T06:02:01;21.90;;;11.10;;
67640;SDS011;54434;50.096;20.082;2023-03-23T06:04:37;24.40;;;10.40;;
67640;SDS011;54434;50.096;20.082;2023-03-23T06:07:20;20.90;;;10.60;;
67640;SDS011;54434;50.096;20.082;2023-03-23T06:10:01;23.60;;;10.80;;
67640;SDS011;54434;50.096;20.082;2023-03-23T06:12:44;22.40;;;9.70;;
67640;SDS011;54434;50.096;20.082;2023-03-23T06:15:48;19.20;;;9.50;;
67640;SDS011;54434;50.096;20.082;2023-03-23T06:18:45;19.40;;;8.70;;
67640;SDS011;54434;50.096;20.082;2023-03-23T06:22:14;28.10;;;11.00;;
67640;SDS011;54434;50.096;20.082;2023-03-23T06:25:11;17.00;;;8.70;;
67640;SDS011;54434;50.096;20.082;2023-03-23T06:27:49;18.70;;;8.30;;
67640;SDS011;54434;50.096;20.082;2023-03-23T06:30:26;15.40;;;8.40;;
67640;SDS011;54434;50.096;20.082;2023-03-23T06:33:03;23.20;;;9.80;;
67640;SDS011;54434;50.096;20.082;2023-03-23T06:36:34;18.70;;;8.80;;
67640;SDS011;54434;50.096;20.082;2023-03-23T06:39:18;18.90;;;8.10;;
67640;SDS011;54434;50.096;20.082;2023-03-23T06:42:33;20.30;;;8.20;;
67640;SDS011;54434;50.096;20.082;2023-03-23T06:45:27;23.90;;;8.50;;
67640;SDS011;54434;50.096;20.082;2023-03-23T06:48:31;20.60;;;8.10;;
67640;SDS011;54434;50.096;20.082;2023-03-23T06:51:07;18.40;;;7.90;;
67640;SDS011;54434;50.096;20.082;2023-03-23T06:53:43;18.80;;;7.60;;
67640;SDS011;54434;50.096;20.082;2023-03-23T06:56:19;13.10;;;6.50;;
67640;SDS011;54434;50.096;20.082;2023-03-23T06:58:55;19.90;;;6.60;;
67640;SDS011;54434;50.096;20.082;2023-03-23T07:01:30;21.20;;;7.10;;
67640;SDS011;54434;50.096;20.082;2023-03-23T07:04:06;20.00;;;6.90;;
67640;SDS011;54434;50.096;20.082;2023-03-23T07:06:53;21.90;;;6.30;;
67640;SDS011;54434;50.096;20.082;2023-03-23T07:09:29;20.50;;;6.60;;
67640;SDS011;54434;50.096;20.082;2023-03-23T07:12:05;22.90;;;7.20;;
67640;SDS011;54434;50.096;20.082;2023-03-23T07:14:46;22.50;;;6.30;;
67640;SDS011;54434;50.096;20.082;2023-03-23T07:17:22;17.60;;;6.70;;
67640;SDS011;54434;50.096;20.082;2023-03-23T07:20:11;14.60;;;6.10;;
67640;SDS011;54434;50.096;20.082;2023-03-23T07:22:47;11.80;;;5.80;;
67640;SDS011;54434;50.096;20.082;2023-03-23T07:25:42;18.00;;;5.70;;
67640;SDS011;54434;50.096;20.082;2023-03-23T07:28:21;12.00;;;5.70;;
67640;SDS011;54434;50.096;20.082;2023-03-23T07:30:57;18.80;;;10.30;;
67640;SDS011;54434;50.096;20.082;2023-03-23T07:33:32;13.10;;;5.70;;
67640;SDS011;54434;50.096;20.082;2023-03-23T07:36:11;10.10;;;5.70;;
67640;SDS011;54434;50.096;20.082;2023-03-23T07:38:47;12.80;;;5.40;;
67640;SDS011;54434;50.096;20.082;2023-03-23T07:41:22;9.70;;;5.50;;
67640;SDS011;54434;50.096;20.082;2023-03-23T07:43:58;11.60;;;5.20;;
67640;SDS011;54434;50.096;20.082;2023-03-23T07:46:40;15.50;;;5.20;;
67640;SDS011;54434;50.096;20.082;2023-03-23T07:49:19;13.90;;;5.10;;
67640;SDS011;54434;50.096;20.082;2023-03-23T07:52:04;11.20;;;5.90;;
67640;SDS011;54434;50.096;20.082;2023-03-23T07:54:40;14.70;;;5.20;;
67640;SDS011;54434;50.096;20.082;2023-03-23T07:57:59;13.60;;;4.60;;
67640;SDS011;54434;50.096;20.082;2023-03-23T08:00:35;6.90;;;4.00;;
67640;SDS011;54434;50.096;20.082;2023-03-23T08:03:13;9.70;;;3.90;;
67640;SDS011;54434;50.096;20.082;2023-03-23T08:06:00;10.60;;;4.20;;
67640;SDS011;54434;50.096;20.082;2023-03-23T08:08:54;10.40;;;3.80;;
67640;SDS011;54434;50.096;20.082;2023-03-23T08:11:48;6.70;;;3.80;;
67640;SDS011;54434;50.096;20.082;2023-03-23T08:14:47;5.60;;;3.20;;
67640;SDS011;54434;50.096;20.082;2023-03-23T08:17:32;5.50;;;3.30;;
67640;SDS011;54434;50.096;20.082;2023-03-23T08:20:49;8.50;;;3.40;;
67640;SDS011;54434;50.096;20.082;2023-03-23T08:24:16;12.60;;;6.50;;
67640;SDS011;54434;50.096;20.082;2023-03-23T08:27:06;6.50;;;3.60;;
67640;SDS011;54434;50.096;20.082;2023-03-23T08:29:59;7.90;;;3.80;;
67640;SDS011;54434;50.096;20.082;2023-03-23T08:32:49;9.80;;;3.60;;
67640;SDS011;54434;50.096;20.082;2023-03-23T08:36:15;9.80;;;3.80;;
67640;SDS011;54434;50.096;20.082;2023-03-23T08:38:57;8.20;;;3.40;;
67640;SDS011;54434;50.096;20.082;2023-03-23T08:41:56;8.70;;;3.40;;
67640;SDS011;54434;50.096;20.082;2023-03-23T08:45:27;8.40;;;3.60;;
67640;SDS011;54434;50.096;20.082;2023-03-23T08:48:21;8.20;;;3.60;;
67640;SDS011;54434;50.096;20.082;2023-03-23T08:51:15;8.80;;;3.70;;
67640;SDS011;54434;50.096;20.082;2023-03-23T08:54:15;11.00;;;3.80;;
67640;SDS011;54434;50.096;20.082;2023-03-23T08:57:35;12.00;;;4.30;;
67640;SDS011;54434;50.096;20.082;2023-03-23T09:00:26;8.20;;;3.40;;
67640;SDS011;54434;50.096;20.082;2023-03-23T09:03:09;8.20;;;3.40;;
67640;SDS011;54434;50.096;20.082;2023-03-23T09:06:06;10.90;;;3.60;;
67640;SDS011;54434;50.096;20.082;2023-03-23T09:08:54;9.90;;;3.80;;
67640;SDS011;54434;50.096;20.082;2023-03-23T09:11:31;10.10;;;3.40;;
67640;SDS011;54434;50.096;20.082;2023-03-23T09:14:08;8.40;;;4.40;;
67640;SDS011;54434;50.096;20.082;2023-03-23T09:16:44;9.60;;;3.20;;
67640;SDS011;54434;50.096;20.082;2023-03-23T09:19:20;9.80;;;3.30;;
67640;SDS011;54434;50.096;20.082;2023-03-23T09:21:56;6.60;;;3.20;;
67640;SDS011;54434;50.096;20.082;2023-03-23T09:24:32;10.20;;;3.30;;
67640;SDS011;54434;50.096;20.082;2023-03-23T09:27:10;7.90;;;3.30;;
67640;SDS011;54434;50.096;20.082;2023-03-23T09:29:46;9.60;;;3.20;;
67640;SDS011;54434;50.096;20.082;2023-03-23T09:32:23;7.30;;;3.00;;
67640;SDS011;54434;50.096;20.082;2023-03-23T09:34:59;7.70;;;3.30;;
67640;SDS011;54434;50.096;20.082;2023-03-23T09:37:35;6.90;;;3.30;;
67640;SDS011;54434;50.096;20.082;2023-03-23T09:51:26;6.60;;;3.40;;
67640;SDS011;54434;50.096;20.082;2023-03-23T10:29:38;6.20;;;2.50;;
67640;SDS011;54434;50.096;20.082;2023-03-23T10:41:11;6.10;;;2.80;;
67640;SDS011;54434;50.096;20.082;2023-03-23T10:43:48;7.20;;;3.00;;
67640;SDS011;54434;50.096;20.082;2023-03-23T10:46:35;7.80;;;3.00;;
67640;SDS011;54434;50.096;20.082;2023-03-23T10:49:24;6.60;;;3.10;;
67640;SDS011;54434;50.096;20.082;2023-03-23T10:52:15;8.90;;;3.20;;
67640;SDS011;54434;50.096;20.082;2023-03-23T10:55:04;6.00;;;3.20;;
67640;SDS011;54434;50.096;20.082;2023-03-23T10:57:45;5.70;;;3.00;;
67640;SDS011;54434;50.096;20.082;2023-03-23T11:00:33;5.20;;;3.00;;
67640;SDS011;54434;50.096;20.082;2023-03-23T11:03:41;5.20;;;2.80;;
67640;SDS011;54434;50.096;20.082;2023-03-23T11:06:26;7.60;;;2.60;;
67640;SDS011;54434;50.096;20.082;2023-03-23T11:09:12;5.50;;;2.90;;
67640;SDS011;54434;50.096;20.082;2023-03-23T11:11:55;6.60;;;2.80;;
67640;SDS011;54434;50.096;20.082;2023-03-23T11:14:32;9.90;;;2.90;;
67640;SDS011;54434;50.096;20.082;2023-03-23T11:17:25;7.80;;;2.80;;
67640;SDS011;54434;50.096;20.082;2023-03-23T11:20:11;7.40;;;3.10;;
67640;SDS011;54434;50.096;20.082;2023-03-23T11:22:54;5.60;;;2.80;;
67640;SDS011;54434;50.096;20.082;2023-03-23T11:25:30;6.80;;;3.10;;
67640;SDS011;54434;50.096;20.082;2023-03-23T11:28:07;6.50;;;2.80;;
67640;SDS011;54434;50.096;20.082;2023-03-23T11:30:43;4.80;;;2.50;;
67640;SDS011;54434;50.096;20.082;2023-03-23T11:33:19;9.20;;;2.90;;
67640;SDS011;54434;50.096;20.082;2023-03-23T11:35:57;8.70;;;2.70;;
67640;SDS011;54434;50.096;20.082;2023-03-23T11:38:34;4.70;;;2.60;;
67640;SDS011;54434;50.096;20.082;2023-03-23T11:41:18;8.10;;;2.80;;
67640;SDS011;54434;50.096;20.082;2023-03-23T11:43:55;6.90;;;2.70;;
67640;SDS011;54434;50.096;20.082;2023-03-23T11:46:44;6.70;;;2.60;;
67640;SDS011;54434;50.096;20.082;2023-03-23T11:49:37;11.90;;;4.10;;
67640;SDS011;54434;50.096;20.082;2023-03-23T11:52:45;8.10;;;3.90;;
67640;SDS011;54434;50.096;20.082;2023-03-23T11:55:30;8.10;;;2.80;;
67640;SDS011;54434;50.096;20.082;2023-03-23T11:58:23;5.90;;;2.90;;
67640;SDS011;54434;50.096;20.082;2023-03-23T12:01:18;7.90;;;2.70;;
67640;SDS011;54434;50.096;20.082;2023-03-23T12:04:34;5.60;;;2.90;;
67640;SDS011;54434;50.096;20.082;2023-03-23T12:07:28;8.10;;;2.70;;
67640;SDS011;54434;50.096;20.082;2023-03-23T12:10:33;4.50;;;2.60;;
67640;SDS011;54434;50.096;20.082;2023-03-23T12:13:26;7.20;;;2.60;;
67640;SDS011;54434;50.096;20.082;2023-03-23T12:16:32;5.90;;;2.30;;
67640;SDS011;54434;50.096;20.082;2023-03-23T12:19:21;4.40;;;2.50;;
67640;SDS011;54434;50.096;20.082;2023-03-23T12:22:11;4.50;;;2.50;;
67640;SDS011;54434;50.096;20.082;2023-03-23T12:25:16;7.00;;;2.60;;
67640;SDS011;54434;50.096;20.082;2023-03-23T12:28:06;7.60;;;2.70;;
67640;SDS011;54434;50.096;20.082;2023-03-23T12:30:52;6.10;;;2.80;;
67640;SDS011;54434;50.096;20.082;2023-03-23T12:33:45;6.40;;;2.50;;
67640;SDS011;54434;50.096;20.082;2023-03-23T12:36:43;6.90;;;2.80;;
67640;SDS011;54434;50.096;20.082;2023-03-23T12:40:03;8.60;;;2.90;;
67640;SDS011;54434;50.096;20.082;2023-03-23T12:43:01;8.90;;;2.70;;
67640;SDS011;54434;50.096;20.082;2023-03-23T12:46:12;8.00;;;2.90;;
67640;SDS011;54434;50.096;20.082;2023-03-23T12:49:03;5.80;;;2.60;;
67640;SDS011;54434;50.096;20.082;2023-03-23T12:51:49;8.90;;;2.90;;
67640;SDS011;54434;50.096;20.082;2023-03-23T12:54:35;12.80;;;3.10;;
67640;SDS011;54434;50.096;20.082;2023-03-23T12:57:20;8.10;;;3.10;;
67640;SDS011;54434;50.096;20.082;2023-03-23T13:00:12;8.50;;;2.80;;
67640;SDS011;54434;50.096;20.082;2023-03-23T13:02:59;6.50;;;2.90;;
67640;SDS011;54434;50.096;20.082;2023-03-23T13:05:46;4.70;;;2.50;;
67640;SDS011;54434;50.096;20.082;2023-03-23T13:08:32;10.30;;;2.60;;
67640;SDS011;54434;50.096;20.082;2023-03-23T13:11:15;9.30;;;2.90;;
67640;SDS011;54434;50.096;20.082;2023-03-23T13:14:03;6.70;;;3.20;;
67640;SDS011;54434;50.096;20.082;2023-03-23T13:16:58;7.50;;;2.90;;
67640;SDS011;54434;50.096;20.082;2023-03-23T13:20:04;6.90;;;2.60;;
67640;SDS011;54434;50.096;20.082;2023-03-23T13:23:02;8.90;;;3.00;;
67640;SDS011;54434;50.096;20.082;2023-03-23T13:25:54;7.50;;;3.00;;
67640;SDS011;54434;50.096;20.082;2023-03-23T13:28:45;5.40;;;2.90;;
67640;SDS011;54434;50.096;20.082;2023-03-23T13:31:31;8.10;;;2.80;;
67640;SDS011;54434;50.096;20.082;2023-03-23T13:34:18;5.90;;;2.40;;
67640;SDS011;54434;50.096;20.082;2023-03-23T13:37:00;7.90;;;2.60;;
67640;SDS011;54434;50.096;20.082;2023-03-23T13:39:48;7.50;;;2.50;;
67640;SDS011;54434;50.096;20.082;2023-03-23T13:42:29;7.90;;;2.30;;
67640;SDS011;54434;50.096;20.082;2023-03-23T13:45:36;4.10;;;2.30;;
67640;SDS011;54434;50.096;20.082;2023-03-23T13:48:25;6.90;;;2.80;;
67640;SDS011;54434;50.096;20.082;2023-03-23T13:51:02;4.70;;;2.40;;
67640;SDS011;54434;50.096;20.082;2023-03-23T13:53:51;6.90;;;2.50;;
67640;SDS011;54434;50.096;20.082;2023-03-23T13:56:52;6.10;;;2.60;;
67640;SDS011;54434;50.096;20.082;2023-03-23T13:59:45;5.80;;;2.20;;
67640;SDS011;54434;50.096;20.082;2023-03-23T14:02:34;7.60;;;2.50;;
67640;SDS011;54434;50.096;20.082;2023-03-23T14:05:32;6.60;;;2.90;;
67640;SDS011;54434;50.096;20.082;2023-03-23T14:08:22;7.10;;;2.40;;
67640;SDS011;54434;50.096;20.082;2023-03-23T14:11:22;6.50;;;2.30;;
67640;SDS011;54434;50.096;20.082;2023-03-23T14:14:12;9.10;;;3.00;;
67640;SDS011;54434;50.096;20.082;2023-03-23T14:16:53;4.70;;;2.50;;
67640;SDS011;54434;50.096;20.082;2023-03-23T14:19:44;5.20;;;2.40;;
67640;SDS011;54434;50.096;20.082;2023-03-23T14:22:25;4.90;;;2.20;;
67640;SDS011;54434;50.096;20.082;2023-03-23T14:25:11;6.50;;;2.30;;
67640;SDS011;54434;50.096;20.082;2023-03-23T14:27:50;6.90;;;2.20;;
67640;SDS011;54434;50.096;20.082;2023-03-23T14:30:27;4.10;;;2.20;;
67640;SDS011;54434;50.096;20.082;2023-03-23T14:33:11;6.10;;;2.20;;
67640;SDS011;54434;50.096;20.082;2023-03-23T14:35:48;5.70;;;2.20;;
67640;SDS011;54434;50.096;20.082;2023-03-23T14:38:25;3.80;;;2.30;;
67640;SDS011;54434;50.096;20.082;2023-03-23T14:41:06;6.90;;;2.30;;
67640;SDS011;54434;50.096;20.082;2023-03-23T14:43:46;6.40;;;2.60;;
67640;SDS011;54434;50.096;20.082;2023-03-23T14:46:23;3.70;;;2.10;;
67640;SDS011;54434;50.096;20.082;2023-03-23T14:49:02;5.40;;;2.40;;
67640;SDS011;54434;50.096;20.082;2023-03-23T14:51:45;5.10;;;2.40;;
67640;SDS011;54434;50.096;20.082;2023-03-23T14:54:27;4.70;;;2.40;;
67640;SDS011;54434;50.096;20.082;2023-03-23T14:57:13;4.70;;;2.10;;
67640;SDS011;54434;50.096;20.082;2023-03-23T14:59:51;4.70;;;2.30;;
67640;SDS011;54434;50.096;20.082;2023-03-23T15:02:30;4.30;;;2.10;;
67640;SDS011;54434;50.096;20.082;2023-03-23T15:05:12;5.10;;;2.20;;
67640;SDS011;54434;50.096;20.082;2023-03-23T15:07:55;5.60;;;2.40;;
67640;SDS011;54434;50.096;20.082;2023-03-23T15:10:35;7.50;;;2.80;;
67640;SDS011;54434;50.096;20.082;2023-03-23T15:13:17;7.30;;;2.90;;
67640;SDS011;54434;50.096;20.082;2023-03-23T15:18:37;6.70;;;2.80;;
67640;SDS011;54434;50.096;20.082;2023-03-23T15:21:26;9.30;;;2.50;;
67640;SDS011;54434;50.096;20.082;2023-03-23T15:24:19;7.10;;;2.80;;
67640;SDS011;54434;50.096;20.082;2023-03-23T15:27:14;11.80;;;2.50;;
67640;SDS011;54434;50.096;20.082;2023-03-23T15:29:58;4.70;;;2.50;;
67640;SDS011;54434;50.096;20.082;2023-03-23T15:32:46;5.00;;;2.50;;
67640;SDS011;54434;50.096;20.082;2023-03-23T15:35:25;4.60;;;2.40;;
67640;SDS011;54434;50.096;20.082;2023-03-23T15:38:14;7.70;;;2.70;;
67640;SDS011;54434;50.096;20.082;2023-03-23T15:40:55;9.20;;;2.60;;
67640;SDS011;54434;50.096;20.082;2023-03-23T15:43:34;7.80;;;2.70;;
67640;SDS011;54434;50.096;20.082;2023-03-23T15:46:25;9.70;;;2.90;;
67640;SDS011;54434;50.096;20.082;2023-03-23T15:49:11;7.40;;;2.60;;
67640;SDS011;54434;50.096;20.082;2023-03-23T15:51:48;9.20;;;2.90;;
67640;SDS011;54434;50.096;20.082;2023-03-23T15:54:23;9.50;;;2.70;;
67640;SDS011;54434;50.096;20.082;2023-03-23T15:57:02;6.00;;;2.60;;
67640;SDS011;54434;50.096;20.082;2023-03-23T15:59:38;5.20;;;2.50;;
67640;SDS011;54434;50.096;20.082;2023-03-23T16:02:22;6.50;;;2.70;;
67640;SDS011;54434;50.096;20.082;2023-03-23T16:04:59;6.30;;;2.40;;
67640;SDS011;54434;50.096;20.082;2023-03-23T16:07:36;8.40;;;2.80;;
67640;SDS011;54434;50.096;20.082;2023-03-23T16:10:19;7.20;;;2.90;;
67640;SDS011;54434;50.096;20.082;2023-03-23T16:12:57;13.40;;;3.10;;
67640;SDS011;54434;50.096;20.082;2023-03-23T16:15:34;12.30;;;3.20;;
67640;SDS011;54434;50.096;20.082;2023-03-23T16:18:18;13.40;;;3.00;;
67640;SDS011;54434;50.096;20.082;2023-03-23T16:20:55;10.30;;;2.90;;
67640;SDS011;54434;50.096;20.082;2023-03-23T16:23:31;11.00;;;3.20;;
67640;SDS011;54434;50.096;20.082;2023-03-23T16:26:08;9.00;;;3.20;;
67640;SDS011;54434;50.096;20.082;2023-03-23T16:28:45;7.00;;;2.90;;
67640;SDS011;54434;50.096;20.082;2023-03-23T16:31:24;10.40;;;3.10;;
67640;SDS011;54434;50.096;20.082;2023-03-23T16:34:00;10.80;;;3.50;;
67640;SDS011;54434;50.096;20.082;2023-03-23T16:36:37;11.90;;;3.20;;
67640;SDS011;54434;50.096;20.082;2023-03-23T16:39:14;12.00;;;3.80;;
67640;SDS011;54434;50.096;20.082;2023-03-23T16:41:51;16.70;;;7.00;;
67640;SDS011;54434;50.096;20.082;2023-03-23T16:44:28;9.60;;;4.00;;
67640;SDS011;54434;50.096;20.082;2023-03-23T16:47:04;12.30;;;4.10;;
67640;SDS011;54434;50.096;20.082;2023-03-23T16:49:41;14.90;;;4.50;;
67640;SDS011;54434;50.096;20.082;2023-03-23T16:52:18;13.00;;;3.70;;
67640;SDS011;54434;50.096;20.082;2023-03-23T16:54:54;17.20;;;3.80;;
67640;SDS011;54434;50.096;20.082;2023-03-23T16:57:32;14.20;;;3.80;;
67640;SDS011;54434;50.096;20.082;2023-03-23T17:00:15;11.20;;;3.40;;
67640;SDS011;54434;50.096;20.082;2023-03-23T17:02:55;14.10;;;3.60;;
67640;SDS011;54434;50.096;20.082;2023-03-23T17:05:33;20.60;;;8.70;;
67640;SDS011;54434;50.096;20.082;2023-03-23T17:08:11;11.90;;;4.30;;
67640;SDS011;54434;50.096;20.082;2023-03-23T17:10:48;16.90;;;4.10;;
67640;SDS011;54434;50.096;20.082;2023-03-23T17:13:24;17.70;;;4.00;;